createdAt,value
2022-08-26T00:02:07.251Z,8.95
2022-08-26T00:04:36.880Z,8.98
2022-08-26T00:07:05.396Z,8.98
2022-08-26T00:12:03.327Z,9.10
2022-08-26T00:14:31.712Z,8.43
2022-08-26T00:17:00.165Z,9.75
2022-08-26T00:19:28.127Z,8.75
2022-08-26T00:21:57.702Z,8.55
2022-08-26T00:24:25.602Z,8.65
2022-08-26T00:26:53.806Z,7.85
2022-08-26T00:29:21.865Z,8.15
2022-08-26T00:31:50.598Z,7.90
2022-08-26T00:34:19.430Z,8.10
2022-08-26T00:36:47.812Z,7.88
2022-08-26T00:39:21.656Z,8.85
2022-08-26T00:41:50.545Z,8.30
2022-08-26T00:44:18.467Z,8.48
2022-08-26T00:46:47.847Z,8.38
2022-08-26T00:49:21.813Z,8.57
2022-08-26T00:51:52.120Z,8.48
2022-08-26T00:54:22.912Z,8.48
2022-08-26T00:56:53.860Z,9.68
2022-08-26T00:59:22.778Z,8.48
2022-08-26T01:01:50.721Z,9.20
2022-08-26T01:04:20.778Z,8.80
2022-08-26T01:06:49.440Z,8.50
2022-08-26T01:09:17.724Z,8.68
2022-08-26T01:11:47.135Z,8.00
2022-08-26T01:14:15.385Z,8.57
2022-08-26T01:16:44.199Z,8.52
2022-08-26T01:19:17.084Z,8.15
2022-08-26T01:21:46.531Z,8.27
2022-08-26T01:24:15.937Z,7.68
2022-08-26T01:26:44.731Z,7.70
2022-08-26T01:29:17.596Z,8.15
2022-08-26T01:31:48.511Z,8.63
2022-08-26T01:34:18.131Z,7.93
2022-08-26T01:36:51.191Z,7.97
2022-08-26T01:39:21.152Z,8.30
2022-08-26T01:41:51.796Z,8.10
2022-08-26T01:44:23.525Z,8.23
2022-08-26T01:46:51.564Z,8.23
2022-08-26T01:49:19.503Z,8.55
2022-08-26T01:51:47.440Z,7.97
2022-08-26T01:54:15.556Z,8.55
2022-08-26T01:56:44.796Z,9.63
2022-08-26T01:59:13.569Z,8.05
2022-08-26T02:01:41.678Z,8.13
2022-08-26T02:04:15.811Z,8.52
2022-08-26T02:06:43.860Z,8.80
2022-08-26T02:09:11.939Z,8.43
2022-08-26T02:11:39.947Z,8.38
2022-08-26T02:14:13.414Z,8.40
2022-08-26T02:16:42.882Z,8.25
2022-08-26T02:19:17.206Z,9.27
2022-08-26T02:21:45.948Z,8.38
2022-08-26T02:24:21.808Z,8.93
2022-08-26T02:26:49.976Z,8.52
2022-08-26T02:29:22.137Z,8.27
2022-08-26T02:31:50.171Z,9.82
2022-08-26T02:34:21.220Z,8.63
2022-08-26T02:36:49.456Z,8.73
2022-08-26T02:39:22.334Z,8.98
2022-08-26T02:41:51.593Z,9.25
2022-08-26T02:44:21.052Z,8.57
2022-08-26T02:46:49.316Z,9.75
2022-08-26T02:49:17.592Z,16.85
2022-08-26T02:51:45.638Z,8.93
2022-08-26T02:54:13.973Z,9.18
2022-08-26T02:56:42.053Z,11.35
2022-08-26T02:59:12.598Z,11.68
2022-08-26T03:01:42.570Z,10.45
2022-08-26T03:04:11.625Z,10.60
2022-08-26T03:06:40.703Z,12.15
2022-08-26T03:09:09.483Z,12.90
2022-08-26T03:11:37.906Z,13.68
2022-08-26T03:14:06.096Z,14.80
2022-08-26T03:16:34.670Z,16.65
2022-08-26T03:19:04.516Z,15.00
2022-08-26T03:21:33.806Z,16.25
2022-08-26T03:24:04.512Z,16.15
2022-08-26T03:26:32.581Z,16.80
2022-08-26T03:29:18.253Z,19.90
2022-08-26T03:31:47.083Z,18.95
2022-08-26T03:34:17.237Z,20.38
2022-08-26T03:36:46.039Z,20.30
2022-08-26T03:39:14.314Z,20.67
2022-08-26T03:41:45.054Z,20.90
2022-08-26T03:44:13.106Z,24.37
2022-08-26T03:46:41.328Z,24.63
2022-08-26T03:49:11.979Z,26.27
2022-08-26T03:51:41.412Z,29.00
2022-08-26T03:54:10.014Z,25.83
2022-08-26T03:56:38.584Z,29.30
2022-08-26T03:59:08.123Z,31.00
2022-08-26T04:01:36.207Z,31.93
2022-08-26T04:04:04.976Z,33.13
2022-08-26T04:06:36.002Z,35.50
2022-08-26T04:09:07.159Z,34.50
2022-08-26T04:11:37.747Z,32.60
2022-08-26T04:14:07.813Z,38.20
2022-08-26T04:16:35.897Z,34.47
2022-08-26T04:19:04.971Z,36.13
2022-08-26T04:21:32.883Z,38.83
2022-08-26T04:24:03.648Z,41.50
2022-08-26T04:26:37.049Z,43.73
2022-08-26T04:29:09.316Z,42.97
2022-08-26T04:31:40.936Z,44.10
2022-08-26T04:34:08.818Z,49.35
2022-08-26T04:36:41.010Z,49.00
2022-08-26T04:39:12.089Z,50.45
2022-08-26T04:41:41.908Z,49.53
2022-08-26T04:44:09.928Z,50.00
2022-08-26T04:46:39.905Z,52.37
2022-08-26T04:49:12.020Z,51.50
2022-08-26T04:51:41.009Z,53.28
2022-08-26T04:54:08.919Z,52.08
2022-08-26T04:56:39.777Z,53.23
2022-08-26T04:59:16.716Z,55.67
2022-08-26T05:01:45.247Z,56.60
2022-08-26T05:04:13.361Z,57.38
2022-08-26T05:06:44.345Z,58.55
2022-08-26T05:09:12.271Z,56.63
2022-08-26T05:11:43.038Z,54.65
2022-08-26T05:14:12.536Z,58.15
2022-08-26T05:16:40.599Z,59.33
2022-08-26T05:19:08.958Z,58.80
2022-08-26T05:21:36.984Z,57.00
2022-08-26T05:24:07.058Z,57.25
2022-08-26T05:26:36.790Z,56.40
2022-08-26T05:29:05.470Z,56.05
2022-08-26T05:31:36.297Z,58.45
2022-08-26T05:34:08.441Z,56.17
2022-08-26T05:36:36.964Z,57.75
2022-08-26T05:39:06.102Z,58.13
2022-08-26T05:41:36.422Z,55.10
2022-08-26T05:44:05.890Z,55.72
2022-08-26T05:46:35.582Z,54.63
2022-08-26T05:49:04.298Z,57.65
2022-08-26T05:51:33.797Z,56.35
2022-08-26T05:54:02.374Z,54.33
2022-08-26T05:56:39.668Z,58.08
2022-08-26T05:59:14.103Z,56.60
2022-08-26T06:01:44.280Z,55.95
2022-08-26T06:04:12.710Z,56.58
2022-08-26T06:06:42.631Z,55.80
2022-08-26T06:11:44.865Z,57.20
2022-08-26T06:14:13.337Z,63.97
2022-08-26T06:16:45.164Z,56.58
2022-08-26T06:19:14.261Z,56.83
2022-08-26T06:21:43.049Z,56.72
2022-08-26T06:24:30.321Z,56.72
2022-08-26T06:27:01.655Z,51.60
2022-08-26T06:29:30.996Z,54.10
2022-08-26T06:32:00.899Z,57.13
2022-08-26T06:34:30.649Z,53.40
2022-08-26T06:36:59.707Z,50.60
2022-08-26T06:39:31.115Z,50.45
2022-08-26T06:41:59.297Z,45.45
2022-08-26T06:44:27.304Z,48.75
2022-08-26T06:46:55.564Z,51.55
2022-08-26T06:49:26.537Z,46.33
2022-08-26T06:51:55.326Z,48.25
2022-08-26T06:54:23.449Z,47.58
2022-08-26T06:56:51.317Z,51.78
2022-08-26T06:59:21.913Z,48.50
2022-08-26T07:01:50.017Z,54.53
2022-08-26T07:04:20.167Z,53.35
2022-08-26T07:06:52.808Z,53.08
2022-08-26T07:09:21.707Z,53.05
2022-08-26T07:11:49.806Z,51.92
2022-08-26T07:14:21.159Z,57.65
2022-08-26T07:16:49.725Z,56.17
2022-08-26T07:19:30.463Z,54.00
2022-08-26T07:22:02.279Z,53.17
2022-08-26T07:24:32.353Z,56.70
2022-08-26T07:27:01.692Z,54.35
2022-08-26T07:29:34.161Z,57.97
2022-08-26T07:32:02.242Z,54.33
2022-08-26T07:34:32.163Z,61.42
2022-08-26T07:37:02.506Z,58.10
2022-08-26T07:39:31.628Z,61.08
2022-08-26T07:42:01.619Z,56.75
2022-08-26T07:44:35.407Z,63.10
2022-08-26T07:47:03.749Z,62.33
2022-08-26T07:49:52.735Z,56.33
2022-08-26T07:52:26.171Z,56.90
2022-08-26T07:54:55.350Z,57.05
2022-08-26T07:57:24.249Z,55.08
2022-08-26T07:59:54.064Z,54.53
2022-08-26T08:02:23.558Z,56.20
2022-08-26T08:04:51.894Z,61.70
2022-08-26T08:07:25.734Z,58.33
2022-08-26T08:10:11.763Z,61.03
2022-08-26T08:12:40.948Z,62.45
2022-08-26T08:15:09.972Z,62.30
2022-08-26T08:17:37.896Z,56.88
2022-08-26T08:20:07.788Z,63.25
2022-08-26T08:22:36.996Z,66.68
2022-08-26T08:25:06.341Z,57.70
2022-08-26T08:27:36.470Z,57.90
2022-08-26T08:30:04.593Z,54.05
2022-08-26T08:32:32.793Z,57.92
2022-08-26T08:35:00.683Z,56.13
2022-08-26T08:37:28.530Z,58.35
2022-08-26T08:39:57.989Z,58.78
2022-08-26T08:42:35.391Z,53.28
2022-08-26T08:45:13.548Z,55.28
2022-08-26T08:47:43.180Z,52.50
2022-08-26T08:50:17.114Z,53.25
2022-08-26T08:52:45.972Z,54.35
2022-08-26T08:55:18.042Z,50.55
2022-08-26T08:57:53.768Z,55.78
2022-08-26T09:00:30.614Z,50.47
2022-08-26T09:02:59.788Z,53.80
2022-08-26T09:05:31.790Z,53.42
2022-08-26T09:08:04.812Z,49.88
2022-08-26T09:10:37.490Z,44.92
2022-08-26T09:13:08.369Z,44.95
2022-08-26T09:15:46.580Z,43.05
2022-08-26T09:18:22.733Z,41.47
2022-08-26T09:20:53.795Z,43.00
2022-08-26T09:23:21.613Z,40.03
2022-08-26T09:25:52.167Z,41.20
2022-08-26T09:28:21.392Z,46.30
2022-08-26T09:31:02.067Z,47.45
2022-08-26T09:33:33.722Z,47.58
2022-08-26T09:36:16.262Z,51.38
2022-08-26T09:38:44.063Z,52.90
2022-08-26T09:41:24.696Z,53.70
2022-08-26T09:44:17.286Z,55.30
2022-08-26T09:46:47.448Z,55.78
2022-08-26T09:49:29.910Z,56.97
2022-08-26T09:52:09.218Z,56.50
2022-08-26T09:54:37.992Z,55.92
2022-08-26T09:57:20.958Z,55.15
2022-08-26T09:59:50.979Z,56.97
2022-08-26T10:02:47.668Z,56.75
2022-08-26T10:05:18.419Z,58.10
2022-08-26T10:07:49.132Z,62.80
2022-08-26T10:10:21.271Z,63.90
2022-08-26T10:12:58.833Z,61.90
2022-08-26T10:15:27.261Z,62.35
2022-08-26T10:17:59.995Z,60.22
2022-08-26T10:20:29.108Z,58.10
2022-08-26T10:22:59.648Z,57.42
2022-08-26T10:25:29.744Z,58.22
2022-08-26T10:28:04.662Z,60.08
2022-08-26T10:30:34.644Z,59.22
2022-08-26T10:33:04.883Z,58.90
2022-08-26T10:35:32.712Z,54.72
2022-08-26T10:38:03.956Z,54.80
2022-08-26T10:40:36.629Z,52.85
2022-08-26T10:43:11.503Z,52.72
2022-08-26T10:45:41.088Z,51.60
2022-08-26T10:48:11.113Z,47.72
2022-08-26T10:50:40.009Z,40.33
2022-08-26T10:53:11.922Z,42.50
2022-08-26T10:55:42.030Z,35.67
2022-08-26T10:58:27.908Z,33.50
2022-08-26T11:01:17.650Z,32.10
2022-08-26T11:03:54.848Z,31.83
2022-08-26T11:06:26.891Z,27.38
2022-08-26T11:08:56.778Z,23.05
2022-08-26T11:11:48.042Z,19.70
2022-08-26T11:14:45.918Z,18.13
2022-08-26T11:17:55.611Z,16.50
2022-08-26T11:20:33.328Z,17.38
2022-08-26T11:23:34.484Z,17.95
2022-08-26T11:26:35.462Z,18.45
2022-08-26T11:29:03.262Z,19.40
2022-08-26T11:31:56.866Z,18.08
2022-08-26T11:34:52.650Z,14.43
2022-08-26T11:39:56.892Z,13.73
2022-08-26T11:42:33.909Z,11.20
2022-08-26T11:45:05.641Z,11.23
2022-08-26T11:47:35.229Z,12.65
2022-08-26T11:50:14.205Z,13.80
2022-08-26T11:52:42.258Z,9.80
2022-08-26T11:55:12.274Z,9.80
2022-08-26T11:57:43.332Z,10.35
2022-08-26T12:00:15.820Z,9.93
2022-08-26T12:02:50.209Z,9.93
2022-08-26T12:05:23.365Z,11.35
2022-08-26T12:07:53.039Z,13.55
2022-08-26T12:12:57.908Z,11.35
2022-08-26T12:15:26.501Z,10.80
2022-08-26T12:17:59.337Z,9.48
2022-08-26T12:20:46.071Z,9.50
2022-08-26T12:23:28.067Z,12.18
2022-08-26T12:26:04.543Z,10.60
2022-08-26T12:28:32.747Z,9.52
2022-08-26T12:31:02.118Z,9.05
2022-08-26T12:33:31.350Z,9.63
2022-08-26T12:36:01.971Z,10.27
2022-08-26T12:38:29.818Z,9.73
2022-08-26T12:40:58.014Z,11.75
2022-08-26T12:43:42.241Z,8.35
2022-08-26T12:46:11.420Z,8.93
2022-08-26T12:48:42.617Z,14.55
2022-08-26T12:51:17.357Z,9.40
2022-08-26T12:53:45.207Z,11.57
2022-08-26T12:56:22.109Z,9.00
2022-08-26T12:59:02.609Z,9.95
2022-08-26T13:01:37.922Z,10.20
2022-08-26T13:04:07.682Z,11.40
2022-08-26T13:06:35.916Z,11.50
2022-08-26T13:09:06.296Z,9.43
2022-08-26T13:11:35.387Z,9.25
2022-08-26T13:14:07.192Z,8.35
2022-08-26T13:16:35.463Z,8.50
2022-08-26T13:19:04.967Z,9.02
2022-08-26T13:21:37.458Z,11.13
2022-08-26T13:24:06.872Z,12.88
2022-08-26T13:26:36.796Z,11.82
2022-08-26T13:29:09.580Z,8.43
2022-08-26T13:31:39.431Z,9.10
2022-08-26T13:34:07.466Z,11.30
2022-08-26T13:36:37.059Z,9.13
2022-08-26T13:39:05.199Z,9.07
2022-08-26T13:41:33.230Z,7.95
2022-08-26T13:44:01.159Z,9.10
2022-08-26T13:46:29.516Z,8.13
2022-08-26T13:48:57.771Z,8.07
2022-08-26T13:51:26.276Z,6.95
2022-08-26T13:53:55.559Z,8.95
2022-08-26T13:56:23.520Z,7.40
2022-08-26T13:58:51.437Z,6.57
2022-08-26T14:01:19.279Z,7.13
2022-08-26T14:03:47.452Z,7.80
2022-08-26T14:06:15.514Z,8.07
2022-08-26T14:08:43.700Z,7.97
2022-08-26T14:11:12.994Z,10.45
2022-08-26T14:13:40.835Z,7.40
2022-08-26T14:16:10.201Z,6.97
2022-08-26T14:18:41.819Z,7.53
2022-08-26T14:21:10.494Z,6.80
2022-08-26T14:23:38.424Z,6.72
2022-08-26T14:26:08.450Z,7.25
2022-08-26T14:28:38.793Z,6.78
2022-08-26T14:31:06.991Z,7.25
2022-08-26T14:33:35.755Z,7.15
2022-08-26T14:36:17.809Z,8.10
2022-08-26T14:38:45.871Z,6.53
2022-08-26T14:41:14.015Z,7.13
2022-08-26T14:43:45.692Z,7.30
2022-08-26T14:46:14.699Z,8.88
2022-08-26T14:48:42.794Z,7.57
2022-08-26T14:51:10.656Z,6.75
2022-08-26T14:53:55.800Z,5.95
2022-08-26T14:56:23.738Z,8.90
2022-08-26T14:58:53.015Z,6.70
2022-08-26T15:01:21.033Z,5.93
2022-08-26T15:03:48.917Z,5.65
2022-08-26T15:06:16.859Z,7.40
2022-08-26T15:08:45.140Z,7.28
2022-08-26T15:11:13.115Z,5.60
2022-08-26T15:13:41.000Z,7.35
2022-08-26T15:16:10.676Z,6.65
2022-08-26T15:18:39.039Z,5.28
2022-08-26T15:21:08.332Z,5.32
2022-08-26T15:23:39.379Z,6.03
2022-08-26T15:26:09.251Z,6.53
2022-08-26T15:28:37.132Z,6.32
2022-08-26T15:31:06.627Z,5.30
2022-08-26T15:33:36.356Z,5.68
2022-08-26T15:36:05.323Z,5.57
2022-08-26T15:38:36.344Z,6.80
2022-08-26T15:41:04.474Z,5.70
2022-08-26T15:43:32.796Z,7.05
2022-08-26T15:46:01.167Z,8.32
2022-08-26T15:48:29.155Z,7.03
2022-08-26T15:51:00.145Z,5.78
2022-08-26T15:53:28.489Z,5.38
2022-08-26T15:55:57.599Z,7.68
2022-08-26T15:58:26.965Z,7.93
2022-08-26T16:00:55.316Z,6.20
2022-08-26T16:03:23.391Z,5.60
2022-08-26T16:05:51.755Z,5.97
2022-08-26T16:08:22.527Z,8.90
2022-08-26T16:10:51.359Z,5.43
2022-08-26T16:13:19.801Z,5.05
2022-08-26T16:15:50.032Z,7.72
2022-08-26T16:18:20.283Z,6.88
2022-08-26T16:21:12.320Z,6.63
2022-08-26T16:23:44.923Z,7.93
2022-08-26T16:26:14.304Z,6.35
2022-08-26T16:28:42.241Z,8.18
2022-08-26T16:31:11.743Z,10.25
2022-08-26T16:33:40.634Z,6.18
2022-08-26T16:36:09.283Z,6.90
2022-08-26T16:38:37.614Z,8.27
2022-08-26T16:41:07.280Z,6.20
2022-08-26T16:43:35.264Z,5.38
2022-08-26T16:46:03.412Z,8.85
2022-08-26T16:48:31.300Z,8.60
2022-08-26T16:50:59.400Z,8.23
2022-08-26T16:53:27.330Z,6.20
2022-08-26T16:55:55.396Z,6.22
2022-08-26T16:58:24.639Z,7.25
2022-08-26T17:00:52.512Z,7.20
2022-08-26T17:03:20.348Z,8.15
2022-08-26T17:05:48.339Z,8.93
2022-08-26T17:08:24.323Z,7.45
2022-08-26T17:10:59.560Z,8.40
2022-08-26T17:13:35.516Z,6.97
2022-08-26T17:16:05.043Z,6.53
2022-08-26T17:18:33.635Z,6.68
2022-08-26T17:21:02.155Z,6.88
2022-08-26T17:23:31.208Z,11.80
2022-08-26T17:25:59.361Z,8.40
2022-08-26T17:28:28.661Z,7.90
2022-08-26T17:30:57.284Z,7.55
2022-08-26T17:33:25.597Z,7.50
2022-08-26T17:35:54.271Z,7.95
2022-08-26T17:38:22.194Z,8.45
2022-08-26T17:40:53.115Z,7.38
2022-08-26T17:43:21.001Z,7.03
2022-08-26T17:45:50.833Z,6.93
2022-08-26T17:48:18.783Z,8.05
2022-08-26T17:50:49.361Z,6.78
2022-08-26T17:53:18.811Z,6.95
2022-08-26T17:55:47.389Z,6.13
2022-08-26T17:58:15.993Z,5.75
2022-08-26T18:00:44.759Z,19.95
2022-08-26T18:03:13.990Z,7.05
2022-08-26T18:05:43.304Z,6.60
2022-08-26T18:08:11.334Z,7.57
2022-08-26T18:13:14.805Z,5.90
2022-08-26T18:15:43.009Z,5.40
2022-08-26T18:18:10.880Z,6.82
2022-08-26T18:20:40.566Z,4.80
2022-08-26T18:23:08.637Z,4.32
2022-08-26T18:25:39.818Z,4.50
2022-08-26T18:28:07.779Z,5.28
2022-08-26T18:30:35.681Z,5.28
2022-08-26T18:33:03.552Z,8.48
2022-08-26T18:35:31.511Z,6.40
2022-08-26T18:38:11.572Z,10.98
2022-08-26T18:40:39.940Z,6.43
2022-08-26T18:43:07.844Z,4.07
2022-08-26T18:45:35.865Z,6.32
2022-08-26T18:48:04.250Z,5.55
2022-08-26T18:50:32.249Z,5.38
2022-08-26T18:53:02.458Z,5.00
2022-08-26T18:55:30.310Z,4.88
2022-08-26T18:57:58.168Z,5.80
2022-08-26T19:00:26.060Z,5.25
2022-08-26T19:02:55.959Z,6.07
2022-08-26T19:05:26.067Z,6.15
2022-08-26T19:07:53.989Z,5.57
2022-08-26T19:10:24.613Z,6.97
2022-08-26T19:12:53.714Z,6.95
2022-08-26T19:15:23.322Z,6.88
2022-08-26T19:17:51.279Z,8.63
2022-08-26T19:20:19.451Z,4.50
2022-08-26T19:22:47.326Z,5.43
2022-08-26T19:25:15.643Z,7.57
2022-08-26T19:27:44.830Z,7.63
2022-08-26T19:30:12.879Z,6.63
2022-08-26T19:32:40.830Z,7.88
2022-08-26T19:35:09.834Z,6.80
2022-08-26T19:37:38.265Z,6.32
2022-08-26T19:40:07.817Z,5.97
2022-08-26T19:42:35.730Z,4.47
2022-08-26T19:45:24.696Z,5.43
2022-08-26T19:47:53.547Z,9.10
2022-08-26T19:50:21.664Z,7.32
2022-08-26T19:52:50.973Z,5.05
2022-08-26T19:55:19.341Z,4.20
2022-08-26T19:57:47.317Z,5.22
2022-08-26T20:00:18.175Z,4.60
2022-08-26T20:02:46.042Z,5.63
2022-08-26T20:05:15.345Z,7.78
2022-08-26T20:07:43.200Z,5.72
2022-08-26T20:10:12.448Z,5.32
2022-08-26T20:12:41.562Z,5.30
2022-08-26T20:15:10.609Z,4.97
2022-08-26T20:17:39.939Z,8.55
2022-08-26T20:20:31.616Z,6.60
2022-08-26T20:23:03.613Z,6.85
2022-08-26T20:25:33.622Z,7.13
2022-08-26T20:28:01.912Z,7.43
2022-08-26T20:30:29.870Z,8.45
2022-08-26T20:32:59.097Z,10.48
2022-08-26T20:35:28.114Z,6.80
2022-08-26T20:37:56.096Z,5.45
2022-08-26T20:40:24.183Z,5.85
2022-08-26T20:42:52.091Z,5.75
2022-08-26T20:45:20.297Z,5.60
2022-08-26T20:47:48.138Z,5.80
2022-08-26T20:50:17.482Z,6.15
2022-08-26T20:52:46.469Z,5.57
2022-08-26T20:55:14.489Z,6.97
2022-08-26T20:57:43.306Z,6.88
2022-08-26T21:00:13.380Z,5.20
2022-08-26T21:02:43.157Z,5.82
2022-08-26T21:05:11.232Z,5.32
2022-08-26T21:07:40.612Z,11.68
2022-08-26T21:10:09.128Z,8.68
2022-08-26T21:12:37.355Z,8.57
2022-08-26T21:15:05.763Z,6.85
2022-08-26T21:17:33.604Z,6.88
2022-08-26T21:20:01.575Z,10.15
2022-08-26T21:22:30.282Z,7.93
2022-08-26T21:24:59.590Z,7.55
2022-08-26T21:27:27.425Z,8.55
2022-08-26T21:29:55.978Z,10.18
2022-08-26T21:32:23.822Z,10.68
2022-08-26T21:34:54.491Z,8.32
2022-08-26T21:37:22.352Z,8.55
2022-08-26T21:39:53.949Z,8.80
2022-08-26T21:42:24.366Z,8.80
2022-08-26T21:44:53.352Z,11.25
2022-08-26T21:47:21.176Z,9.50
2022-08-26T21:49:49.286Z,7.65
2022-08-26T21:52:17.300Z,13.52
2022-08-26T21:54:49.310Z,10.55
2022-08-26T21:57:17.631Z,12.02
2022-08-26T21:59:47.148Z,11.98
2022-08-26T22:02:15.649Z,12.60
2022-08-26T22:04:48.524Z,13.05
2022-08-26T22:07:17.387Z,12.40
2022-08-26T22:09:45.289Z,11.93
2022-08-26T22:12:16.757Z,13.25
2022-08-26T22:14:47.015Z,11.13
2022-08-26T22:17:14.936Z,11.90
2022-08-26T22:19:46.137Z,11.60
2022-08-26T22:22:14.871Z,11.10
2022-08-26T22:24:43.270Z,12.05
2022-08-26T22:27:12.007Z,11.48
2022-08-26T22:29:42.733Z,10.40
2022-08-26T22:32:12.063Z,11.18
2022-08-26T22:34:40.546Z,10.60
2022-08-26T22:37:08.394Z,11.03
2022-08-26T22:39:36.401Z,11.47
2022-08-26T22:42:04.936Z,11.55
2022-08-26T22:44:32.819Z,10.18
2022-08-26T22:47:01.153Z,10.73
2022-08-26T22:49:30.483Z,11.47
2022-08-26T22:51:58.275Z,10.47
2022-08-26T22:54:26.261Z,9.47
2022-08-26T22:56:54.218Z,8.37
2022-08-26T22:59:22.035Z,8.60
2022-08-26T23:01:49.895Z,10.03
2022-08-26T23:04:17.706Z,10.13
2022-08-26T23:06:47.730Z,9.73
2022-08-26T23:09:17.867Z,9.73
2022-08-26T23:11:46.215Z,9.07
2022-08-26T23:14:14.176Z,8.13
2022-08-26T23:16:42.495Z,7.73
2022-08-26T23:19:10.710Z,7.43
2022-08-26T23:21:38.555Z,7.50
2022-08-26T23:24:08.133Z,6.83
2022-08-26T23:26:36.111Z,6.53
2022-08-26T23:29:04.892Z,7.17
2022-08-26T23:31:33.308Z,7.97
2022-08-26T23:34:18.912Z,7.27
2022-08-26T23:36:47.324Z,7.23
2022-08-26T23:39:16.766Z,7.53
2022-08-26T23:41:44.613Z,8.07
2022-08-26T23:44:12.772Z,8.63
2022-08-26T23:46:40.962Z,9.03
2022-08-26T23:49:09.006Z,8.30
2022-08-26T23:51:54.352Z,8.80
2022-08-26T23:54:24.068Z,9.47
2022-08-26T23:56:51.960Z,8.57
2022-08-26T23:59:19.971Z,9.50
